createdAt,value
2018-09-28T00:00:56.275Z,88.14
2018-09-28T00:03:24.939Z,88.35
2018-09-28T00:05:53.840Z,88.25
2018-09-28T00:08:22.522Z,88.53
2018-09-28T00:10:51.206Z,88.30
2018-09-28T00:13:19.903Z,88.17
2018-09-28T00:15:48.759Z,88.58
2018-09-28T00:18:17.432Z,88.35
2018-09-28T00:20:46.083Z,88.19
2018-09-28T00:23:14.745Z,88.14
2018-09-28T00:25:43.480Z,88.59
2018-09-28T00:28:12.149Z,89.17
2018-09-28T00:30:40.821Z,89.17
2018-09-28T00:33:09.487Z,89.51
2018-09-28T00:35:38.178Z,89.49
2018-09-28T00:38:06.895Z,89.29
2018-09-28T00:40:35.583Z,89.18
2018-09-28T00:43:04.284Z,89.16
2018-09-28T00:45:33.095Z,89.05
2018-09-28T00:48:01.740Z,88.87
2018-09-28T00:50:30.419Z,89.34
2018-09-28T00:52:59.063Z,89.01
2018-09-28T00:55:28.899Z,88.98
2018-09-28T00:57:57.578Z,89.08
2018-09-28T01:00:26.281Z,89.33
2018-09-28T01:02:54.956Z,89.60
2018-09-28T01:05:23.707Z,89.52
2018-09-28T01:07:52.528Z,89.06
2018-09-28T01:10:21.204Z,88.99
2018-09-28T01:12:49.943Z,88.88
2018-09-28T01:15:18.643Z,89.25
2018-09-28T01:17:47.360Z,89.05
2018-09-28T01:20:16.013Z,89.20
2018-09-28T01:22:44.675Z,89.24
2018-09-28T01:25:13.350Z,89.59
2018-09-28T01:27:43.220Z,89.15
2018-09-28T01:30:11.907Z,89.15
2018-09-28T01:32:40.584Z,89.47
2018-09-28T01:35:09.271Z,89.25
2018-09-28T01:37:37.956Z,89.15
2018-09-28T01:40:06.644Z,89.38
2018-09-28T01:42:35.308Z,89.28
2018-09-28T01:45:04.104Z,89.18
2018-09-28T01:47:32.754Z,88.96
2018-09-28T01:50:01.413Z,89.25
2018-09-28T01:52:30.105Z,89.44
2018-09-28T01:54:58.851Z,89.35
2018-09-28T01:57:27.772Z,89.71
2018-09-28T01:59:56.428Z,89.48
2018-09-28T02:02:25.475Z,89.22
2018-09-28T02:04:54.151Z,89.51
2018-09-28T02:07:22.829Z,89.29
2018-09-28T02:09:51.477Z,89.24
2018-09-28T02:12:20.218Z,89.49
2018-09-28T02:14:48.840Z,89.54
2018-09-28T02:17:17.506Z,89.88
2018-09-28T02:19:46.156Z,89.59
2018-09-28T02:22:14.907Z,89.47
2018-09-28T02:24:43.607Z,89.65
2018-09-28T02:27:12.276Z,89.59
2018-09-28T02:29:40.981Z,89.70
2018-09-28T02:32:09.648Z,89.49
2018-09-28T02:34:38.322Z,89.75
2018-09-28T02:37:07.464Z,89.60
2018-09-28T02:39:36.117Z,89.80
2018-09-28T02:42:04.961Z,89.42
2018-09-28T02:44:33.690Z,89.84
2018-09-28T02:47:02.335Z,89.81
2018-09-28T02:49:31.988Z,89.47
2018-09-28T02:52:00.655Z,89.95
2018-09-28T02:54:29.312Z,90.15
2018-09-28T02:56:58.259Z,90.26
2018-09-28T02:59:26.872Z,90.12
2018-09-28T03:01:55.589Z,90.52
2018-09-28T03:04:25.621Z,90.00
2018-09-28T03:06:54.271Z,90.55
2018-09-28T03:09:22.940Z,90.13
2018-09-28T03:11:51.608Z,90.53
2018-09-28T03:14:20.243Z,89.89
2018-09-28T03:16:49.937Z,90.17
2018-09-28T03:19:18.599Z,89.98
2018-09-28T03:21:47.255Z,90.18
2018-09-28T03:24:15.918Z,90.38
2018-09-28T03:26:44.568Z,90.52
2018-09-28T03:29:13.199Z,90.50
2018-09-28T03:31:41.840Z,91.05
2018-09-28T03:34:10.499Z,90.82
2018-09-28T03:36:39.159Z,90.70
2018-09-28T03:39:08.396Z,90.56
2018-09-28T03:41:37.227Z,90.94
2018-09-28T03:44:06.208Z,90.75
2018-09-28T03:46:35.119Z,90.67
2018-09-28T03:49:03.746Z,90.42
2018-09-28T03:51:32.433Z,90.89
2018-09-28T03:54:01.117Z,90.57
2018-09-28T03:56:29.743Z,90.30
2018-09-28T03:58:58.410Z,90.81
2018-09-28T04:01:27.090Z,90.96
2018-09-28T04:03:55.803Z,90.99
2018-09-28T04:06:24.460Z,90.45
2018-09-28T04:08:53.109Z,90.83
2018-09-28T04:11:21.783Z,90.87
2018-09-28T04:13:50.450Z,90.55
2018-09-28T04:16:20.261Z,90.90
2018-09-28T04:18:48.941Z,90.67
2018-09-28T04:21:17.644Z,90.37
2018-09-28T04:23:47.367Z,90.61
2018-09-28T04:26:16.040Z,91.00
2018-09-28T04:28:44.700Z,90.92
2018-09-28T04:31:13.384Z,90.43
2018-09-28T04:33:42.120Z,90.67
2018-09-28T04:36:10.805Z,90.83
2018-09-28T04:38:39.445Z,90.48
2018-09-28T04:41:08.151Z,90.81
2018-09-28T04:43:36.916Z,90.79
2018-09-28T04:46:05.699Z,90.90
2018-09-28T04:48:34.424Z,91.27
2018-09-28T04:51:03.132Z,91.23
2018-09-28T04:53:31.821Z,90.98
2018-09-28T04:56:00.492Z,91.60
2018-09-28T04:58:29.166Z,91.12
2018-09-28T05:00:57.831Z,91.33
2018-09-28T05:03:26.515Z,91.52
2018-09-28T05:05:55.168Z,91.58
2018-09-28T05:08:23.836Z,91.65
2018-09-28T05:10:52.488Z,91.51
2018-09-28T05:13:21.136Z,91.41
2018-09-28T05:15:49.986Z,91.86
2018-09-28T05:18:18.652Z,91.79
2018-09-28T05:20:47.324Z,92.00
2018-09-28T05:23:15.995Z,91.76
2018-09-28T05:25:44.665Z,92.18
2018-09-28T05:28:13.412Z,92.31
2018-09-28T05:30:44.971Z,92.35
2018-09-28T05:33:10.767Z,92.51
2018-09-28T05:35:39.431Z,91.93
2018-09-28T05:38:08.103Z,92.28
2018-09-28T05:40:36.767Z,92.08
2018-09-28T05:43:05.507Z,92.04
2018-09-28T05:45:34.188Z,91.94
2018-09-28T05:48:02.931Z,92.66
2018-09-28T05:50:31.600Z,92.57
2018-09-28T05:53:00.296Z,92.86
2018-09-28T05:55:29.006Z,92.89
2018-09-28T05:58:02.863Z,93.02
2018-09-28T06:00:36.849Z,92.90
2018-09-28T06:03:09.858Z,92.89
2018-09-28T06:05:42.784Z,93.38
2018-09-28T06:08:12.068Z,93.61
2018-09-28T06:10:40.751Z,93.10
2018-09-28T06:13:09.415Z,93.74
2018-09-28T06:15:38.318Z,93.66
2018-09-28T06:18:07.008Z,93.95
2018-09-28T06:20:35.711Z,93.62
2018-09-28T06:23:04.740Z,94.36
2018-09-28T06:25:33.516Z,94.37
2018-09-28T06:28:02.207Z,94.13
2018-09-28T06:30:30.928Z,93.93
2018-09-28T06:32:59.606Z,94.12
2018-09-28T06:35:28.300Z,94.26
2018-09-28T06:37:56.979Z,94.36
2018-09-28T06:40:25.727Z,94.65
2018-09-28T06:42:54.536Z,94.80
2018-09-28T06:45:23.225Z,94.60
2018-09-28T06:47:51.907Z,94.89
2018-09-28T06:50:20.595Z,94.53
2018-09-28T06:52:49.543Z,94.94
2018-09-28T06:55:18.241Z,95.11
2018-09-28T06:57:46.994Z,94.80
2018-09-28T07:00:15.879Z,94.93
2018-09-28T07:02:44.495Z,94.94
2018-09-28T07:05:13.223Z,94.97
2018-09-28T07:07:41.872Z,95.01
2018-09-28T07:10:10.665Z,95.00
2018-09-28T07:12:39.355Z,95.26
2018-09-28T07:15:08.086Z,95.03
2018-09-28T07:17:36.737Z,95.39
2018-09-28T07:20:05.614Z,95.63
2018-09-28T07:22:34.349Z,95.33
2018-09-28T07:25:03.086Z,95.55
2018-09-28T07:27:31.719Z,95.82
2018-09-28T07:30:00.428Z,96.09
2018-09-28T07:32:29.082Z,96.32
2018-09-28T07:34:57.791Z,96.25
2018-09-28T07:37:26.468Z,96.43
2018-09-28T07:39:55.167Z,96.88
2018-09-28T07:42:23.899Z,96.77
2018-09-28T07:44:52.539Z,96.81
2018-09-28T07:47:21.227Z,96.67
2018-09-28T07:49:50.023Z,96.72
2018-09-28T07:52:18.691Z,96.88
2018-09-28T07:54:47.438Z,97.17
2018-09-28T07:57:16.096Z,97.33
2018-09-28T07:59:44.768Z,97.76
2018-09-28T08:02:13.436Z,97.68
2018-09-28T08:04:42.101Z,97.30
2018-09-28T08:07:10.788Z,97.78
2018-09-28T08:09:39.441Z,97.88
2018-09-28T08:12:08.147Z,97.91
2018-09-28T08:14:36.896Z,97.34
2018-09-28T08:17:05.584Z,97.46
2018-09-28T08:19:34.269Z,97.24
2018-09-28T08:22:02.948Z,97.14
2018-09-28T08:24:31.633Z,97.41
2018-09-28T08:27:00.308Z,97.43
2018-09-28T08:29:28.972Z,97.02
2018-09-28T08:31:57.669Z,97.18
2018-09-28T08:34:26.330Z,96.65
2018-09-28T08:36:55.115Z,95.90
2018-09-28T08:39:23.756Z,95.49
2018-09-28T08:41:52.495Z,95.49
2018-09-28T08:44:21.169Z,95.00
2018-09-28T08:46:49.850Z,94.67
2018-09-28T08:49:18.618Z,94.92
2018-09-28T08:51:47.280Z,94.75
2018-09-28T08:54:17.068Z,94.04
2018-09-28T08:56:45.814Z,93.86
2018-09-28T08:59:14.514Z,93.92
2018-09-28T09:01:43.261Z,93.12
2018-09-28T09:04:11.980Z,92.89
2018-09-28T09:06:40.681Z,93.14
2018-09-28T09:09:11.460Z,92.67
2018-09-28T09:11:40.204Z,92.73
2018-09-28T09:14:09.081Z,92.17
2018-09-28T09:16:37.830Z,91.74
2018-09-28T09:19:06.506Z,91.25
2018-09-28T09:21:35.300Z,90.59
2018-09-28T09:24:04.173Z,90.46
2018-09-28T09:26:32.812Z,90.13
2018-09-28T09:29:01.556Z,89.76
2018-09-28T09:31:30.243Z,89.68
2018-09-28T09:33:58.990Z,89.30
2018-09-28T09:36:27.707Z,89.46
2018-09-28T09:38:56.488Z,89.26
2018-09-28T09:41:25.184Z,88.82
2018-09-28T09:43:53.894Z,88.62
2018-09-28T09:46:22.604Z,88.58
2018-09-28T09:48:51.354Z,88.68
2018-09-28T09:51:20.097Z,89.23
2018-09-28T09:53:48.878Z,88.00
2018-09-28T09:56:17.581Z,88.01
2018-09-28T09:58:46.300Z,88.22
2018-09-28T10:01:20.090Z,87.63
2018-09-28T10:03:50.206Z,87.63
2018-09-28T10:06:18.954Z,87.22
2018-09-28T10:08:47.907Z,87.35
2018-09-28T10:11:16.607Z,86.77
2018-09-28T10:13:45.302Z,85.98
2018-09-28T10:16:14.078Z,86.13
2018-09-28T10:18:42.769Z,85.82
2018-09-28T10:21:11.496Z,85.75
2018-09-28T10:23:40.260Z,85.38
2018-09-28T10:26:08.980Z,85.18
2018-09-28T10:28:37.770Z,84.98
2018-09-28T10:31:06.456Z,84.51
2018-09-28T10:33:35.250Z,83.90
2018-09-28T10:36:04.089Z,83.60
2018-09-28T10:38:32.844Z,83.20
2018-09-28T10:41:01.637Z,82.78
2018-09-28T10:43:30.294Z,82.17
2018-09-28T10:45:59.056Z,82.19
2018-09-28T10:48:27.761Z,82.05
2018-09-28T10:50:56.532Z,82.05
2018-09-28T10:53:25.197Z,81.44
2018-09-28T10:55:53.920Z,81.00
2018-09-28T10:58:22.876Z,80.95
2018-09-28T11:00:51.572Z,80.04
2018-09-28T11:03:20.351Z,79.83
2018-09-28T11:05:49.065Z,79.17
2018-09-28T11:08:17.848Z,78.53
2018-09-28T11:10:46.555Z,78.27
2018-09-28T11:13:15.366Z,77.50
2018-09-28T11:15:44.089Z,76.93
2018-09-28T11:18:12.813Z,75.67
2018-09-28T11:20:41.545Z,75.20
2018-09-28T11:23:10.252Z,74.51
2018-09-28T11:25:38.999Z,74.28
2018-09-28T11:28:07.726Z,73.42
2018-09-28T11:30:36.464Z,73.21
2018-09-28T11:33:05.166Z,73.20
2018-09-28T11:35:33.893Z,72.33
2018-09-28T11:38:02.751Z,71.52
2018-09-28T11:40:31.510Z,70.99
2018-09-28T11:43:00.219Z,70.85
2018-09-28T11:45:29.038Z,70.45
2018-09-28T11:47:57.714Z,69.99
2018-09-28T11:50:26.404Z,69.41
2018-09-28T11:52:55.248Z,69.42
2018-09-28T11:55:23.975Z,69.11
2018-09-28T11:57:52.689Z,69.65
2018-09-28T12:00:21.408Z,69.63
2018-09-28T12:02:50.229Z,69.67
2018-09-28T12:05:18.972Z,69.72
2018-09-28T12:07:47.688Z,68.96
2018-09-28T12:10:16.404Z,68.63
2018-09-28T12:12:45.184Z,67.70
2018-09-28T12:15:13.865Z,66.35
2018-09-28T12:17:42.577Z,64.72
2018-09-28T12:20:11.572Z,64.50
2018-09-28T12:22:40.388Z,63.62
2018-09-28T12:25:09.079Z,63.26
2018-09-28T12:27:37.821Z,63.02
2018-09-28T12:30:06.761Z,62.47
2018-09-28T12:32:35.456Z,61.68
2018-09-28T12:35:04.183Z,62.66
2018-09-28T12:37:32.908Z,61.82
2018-09-28T12:40:01.692Z,61.77
2018-09-28T12:42:30.433Z,62.69
2018-09-28T12:44:59.239Z,63.49
2018-09-28T12:47:27.875Z,63.79
2018-09-28T12:49:56.643Z,63.02
2018-09-28T12:52:25.806Z,62.43
2018-09-28T12:54:54.493Z,61.49
2018-09-28T12:57:23.175Z,60.71
2018-09-28T12:59:52.148Z,58.98
2018-09-28T13:02:20.873Z,58.69
2018-09-28T13:04:49.631Z,57.95
2018-09-28T13:07:18.319Z,57.96
2018-09-28T13:09:47.045Z,56.86
2018-09-28T13:12:15.809Z,56.63
2018-09-28T13:14:44.577Z,56.37
2018-09-28T13:17:13.212Z,55.77
2018-09-28T13:19:41.944Z,54.85
2018-09-28T13:22:10.601Z,53.67
2018-09-28T13:24:39.302Z,53.10
2018-09-28T13:27:08.032Z,52.66
2018-09-28T13:29:36.725Z,52.32
2018-09-28T13:32:05.429Z,52.72
2018-09-28T13:34:34.127Z,53.77
2018-09-28T13:37:03.718Z,53.58
2018-09-28T13:39:33.464Z,52.81
2018-09-28T13:42:02.217Z,52.60
2018-09-28T13:44:31.002Z,52.04
2018-09-28T13:46:59.769Z,51.31
2018-09-28T13:49:28.460Z,51.75
2018-09-28T13:51:57.189Z,51.31
2018-09-28T13:54:25.949Z,50.86
2018-09-28T13:56:54.628Z,50.79
2018-09-28T13:59:23.322Z,50.23
2018-09-28T14:01:52.027Z,50.18
2018-09-28T14:04:20.812Z,49.88
2018-09-28T14:06:49.650Z,50.23
2018-09-28T14:09:18.332Z,50.17
2018-09-28T14:11:47.067Z,48.99
2018-09-28T14:14:15.819Z,49.61
2018-09-28T14:16:44.566Z,50.42
2018-09-28T14:19:13.302Z,49.77
2018-09-28T14:21:42.242Z,48.82
2018-09-28T14:24:10.987Z,48.22
2018-09-28T14:26:39.914Z,48.13
2018-09-28T14:29:08.603Z,47.27
2018-09-28T14:31:37.335Z,47.31
2018-09-28T14:34:06.096Z,47.12
2018-09-28T14:36:34.870Z,46.88
2018-09-28T14:39:04.919Z,46.30
2018-09-28T14:41:33.807Z,46.34
2018-09-28T14:44:02.521Z,45.71
2018-09-28T14:46:31.244Z,45.79
2018-09-28T14:49:00.152Z,45.67
2018-09-28T14:51:28.718Z,46.29
2018-09-28T14:53:57.481Z,45.80
2018-09-28T14:56:26.243Z,46.00
2018-09-28T14:58:54.950Z,45.50
2018-09-28T15:01:23.849Z,45.17
2018-09-28T15:03:52.352Z,44.93
2018-09-28T15:06:21.115Z,45.12
2018-09-28T15:08:49.953Z,44.73
2018-09-28T15:11:18.732Z,45.17
2018-09-28T15:13:47.433Z,44.24
2018-09-28T15:16:16.157Z,44.69
2018-09-28T15:18:44.914Z,44.10
2018-09-28T15:21:13.579Z,44.30
2018-09-28T15:23:42.299Z,43.67
2018-09-28T15:26:10.992Z,43.41
2018-09-28T15:28:39.765Z,43.32
2018-09-28T15:31:08.467Z,43.01
2018-09-28T15:33:37.156Z,43.77
2018-09-28T15:36:06.020Z,43.47
2018-09-28T15:38:34.940Z,43.83
2018-09-28T15:41:03.768Z,43.18
2018-09-28T15:43:32.556Z,42.29
2018-09-28T15:46:01.416Z,42.57
2018-09-28T15:48:30.181Z,42.13
2018-09-28T15:50:59.089Z,42.66
2018-09-28T15:53:27.847Z,42.51
2018-09-28T15:55:56.769Z,42.07
2018-09-28T15:58:25.540Z,42.19
2018-09-28T16:00:54.229Z,41.73
2018-09-28T16:03:22.922Z,42.20
2018-09-28T16:05:51.652Z,42.05
2018-09-28T16:08:20.328Z,41.77
2018-09-28T16:10:49.123Z,41.60
2018-09-28T16:13:17.828Z,41.60
2018-09-28T16:15:46.640Z,41.70
2018-09-28T16:18:15.394Z,41.38
2018-09-28T16:20:44.176Z,41.70
2018-09-28T16:23:12.948Z,40.88
2018-09-28T16:25:41.672Z,40.77
2018-09-28T16:28:10.456Z,41.01
2018-09-28T16:30:39.212Z,40.24
2018-09-28T16:33:08.000Z,40.34
2018-09-28T16:35:36.707Z,40.91
2018-09-28T16:38:05.656Z,40.42
2018-09-28T16:40:34.465Z,40.36
2018-09-28T16:43:03.281Z,40.57
2018-09-28T16:45:32.089Z,40.71
2018-09-28T16:48:00.884Z,41.25
2018-09-28T16:50:29.656Z,41.45
2018-09-28T16:52:58.390Z,41.38
2018-09-28T16:55:27.134Z,41.63
2018-09-28T16:57:56.073Z,41.72
2018-09-28T17:00:24.908Z,41.15
2018-09-28T17:02:53.652Z,41.61
2018-09-28T17:05:22.585Z,42.34
2018-09-28T17:07:51.453Z,42.48
2018-09-28T17:10:20.276Z,42.29
2018-09-28T17:12:49.237Z,43.17
2018-09-28T17:15:18.123Z,43.47
2018-09-28T17:17:46.907Z,43.87
2018-09-28T17:20:15.703Z,44.57
2018-09-28T17:22:44.496Z,45.33
2018-09-28T17:25:13.272Z,45.55
2018-09-28T17:27:41.966Z,46.25
2018-09-28T17:30:10.815Z,46.75
2018-09-28T17:32:39.717Z,47.42
2018-09-28T17:35:08.648Z,47.70
2018-09-28T17:37:37.343Z,48.11
2018-09-28T17:40:06.365Z,48.72
2018-09-28T17:42:35.220Z,49.09
2018-09-28T17:45:04.071Z,49.66
2018-09-28T17:47:32.812Z,50.02
2018-09-28T17:50:01.603Z,50.33
2018-09-28T17:52:30.384Z,50.89
2018-09-28T17:54:59.120Z,51.23
2018-09-28T17:57:27.850Z,51.61
2018-09-28T17:59:56.597Z,52.19
2018-09-28T18:02:25.292Z,52.79
2018-09-28T18:04:54.032Z,53.16
2018-09-28T18:07:22.759Z,53.96
2018-09-28T18:09:51.512Z,54.73
2018-09-28T18:12:20.227Z,55.11
2018-09-28T18:14:49.017Z,55.64
2018-09-28T18:17:17.730Z,56.01
2018-09-28T18:19:46.393Z,56.47
2018-09-28T18:22:15.101Z,57.00
2018-09-28T18:24:43.760Z,57.53
2018-09-28T18:27:12.494Z,57.56
2018-09-28T18:29:41.153Z,58.41
2018-09-28T18:32:09.848Z,58.81
2018-09-28T18:34:38.508Z,59.40
2018-09-28T18:37:07.268Z,59.64
2018-09-28T18:39:35.981Z,59.75
2018-09-28T18:42:04.730Z,60.28
2018-09-28T18:44:33.386Z,60.80
2018-09-28T18:47:02.853Z,61.27
2018-09-28T18:49:31.672Z,61.58
2018-09-28T18:52:00.356Z,61.60
2018-09-28T18:54:29.028Z,61.66
2018-09-28T18:56:57.716Z,61.95
2018-09-28T18:59:26.545Z,62.23
2018-09-28T19:01:55.236Z,62.25
2018-09-28T19:04:23.969Z,62.58
2018-09-28T19:06:52.714Z,63.01
2018-09-28T19:09:21.605Z,63.10
2018-09-28T19:11:50.517Z,63.15
2018-09-28T19:14:19.228Z,63.24
2018-09-28T19:16:48.021Z,63.40
2018-09-28T19:19:16.798Z,63.86
2018-09-28T19:21:45.492Z,64.24
2018-09-28T19:24:14.176Z,64.81
2018-09-28T19:26:42.865Z,64.86
2018-09-28T19:29:11.597Z,65.17
2018-09-28T19:31:40.399Z,65.24
2018-09-28T19:34:09.180Z,65.38
2018-09-28T19:36:37.889Z,65.34
2018-09-28T19:39:08.613Z,65.54
2018-09-28T19:41:37.515Z,66.11
2018-09-28T19:44:06.432Z,66.27
2018-09-28T19:46:35.244Z,66.54
2018-09-28T19:49:03.974Z,66.45
2018-09-28T19:51:32.875Z,66.37
2018-09-28T19:54:01.580Z,66.56
2018-09-28T19:56:30.288Z,66.68
2018-09-28T19:58:59.501Z,66.38
2018-09-28T20:01:28.227Z,66.93
2018-09-28T20:03:56.932Z,67.54
2018-09-28T20:06:25.625Z,67.91
2018-09-28T20:08:54.387Z,68.73
2018-09-28T20:11:23.196Z,68.83
2018-09-28T20:13:51.949Z,69.13
2018-09-28T20:16:20.676Z,68.91
2018-09-28T20:18:49.471Z,68.93
2018-09-28T20:21:18.164Z,68.84
2018-09-28T20:23:46.877Z,68.89
2018-09-28T20:26:15.668Z,69.39
2018-09-28T20:28:44.372Z,69.65
2018-09-28T20:31:13.206Z,70.05
2018-09-28T20:33:41.976Z,70.16
2018-09-28T20:36:10.717Z,70.09
2018-09-28T20:38:39.568Z,70.36
2018-09-28T20:41:08.304Z,70.10
2018-09-28T20:43:37.024Z,69.93
2018-09-28T20:46:05.764Z,70.16
2018-09-28T20:48:34.536Z,70.55
2018-09-28T20:51:03.267Z,70.31
2018-09-28T20:53:32.053Z,70.58
2018-09-28T20:56:00.790Z,70.27
2018-09-28T20:58:29.501Z,70.53
2018-09-28T21:00:58.246Z,70.92
2018-09-28T21:03:26.965Z,70.87
2018-09-28T21:05:55.651Z,70.51
2018-09-28T21:08:24.341Z,70.89
2018-09-28T21:10:53.093Z,70.99
2018-09-28T21:13:21.926Z,70.90
2018-09-28T21:15:50.600Z,70.64
2018-09-28T21:18:19.727Z,71.49
2018-09-28T21:20:48.534Z,71.10
2018-09-28T21:23:17.272Z,71.79
2018-09-28T21:25:45.976Z,71.21
2018-09-28T21:28:14.678Z,72.01
2018-09-28T21:30:43.368Z,72.01
2018-09-28T21:33:12.052Z,71.54
2018-09-28T21:35:40.764Z,71.74
2018-09-28T21:38:09.465Z,71.36
2018-09-28T21:40:38.112Z,71.47
2018-09-28T21:43:07.868Z,71.88
2018-09-28T21:45:36.541Z,71.23
2018-09-28T21:48:05.268Z,71.57
2018-09-28T21:50:33.949Z,71.43
2018-09-28T21:53:02.665Z,71.91
2018-09-28T21:55:31.335Z,72.36
2018-09-28T21:58:00.008Z,72.09
2018-09-28T22:00:28.789Z,72.27
2018-09-28T22:02:57.711Z,71.94
2018-09-28T22:05:26.376Z,71.96
2018-09-28T22:07:55.060Z,72.17
2018-09-28T22:10:23.755Z,72.26
2018-09-28T22:12:52.440Z,72.40
2018-09-28T22:15:21.127Z,72.19
2018-09-28T22:17:49.867Z,72.85
2018-09-28T22:20:18.620Z,73.04
2018-09-28T22:22:47.351Z,72.75
2018-09-28T22:25:16.079Z,73.02
2018-09-28T22:27:44.767Z,73.38
2018-09-28T22:30:13.427Z,73.57
2018-09-28T22:32:42.073Z,73.83
2018-09-28T22:35:10.775Z,73.87
2018-09-28T22:37:39.467Z,73.93
2018-09-28T22:40:08.115Z,73.86
2018-09-28T22:42:36.823Z,74.14
2018-09-28T22:45:05.483Z,74.29
2018-09-28T22:47:34.155Z,74.14
2018-09-28T22:50:02.809Z,74.53
2018-09-28T22:52:31.480Z,74.66
2018-09-28T22:55:00.198Z,75.02
2018-09-28T22:57:28.896Z,74.74
2018-09-28T22:59:57.651Z,74.47
2018-09-28T23:02:26.328Z,74.53
2018-09-28T23:04:55.036Z,74.82
2018-09-28T23:07:23.738Z,74.66
2018-09-28T23:09:52.428Z,74.97
2018-09-28T23:12:21.151Z,74.84
2018-09-28T23:14:49.880Z,74.83
2018-09-28T23:17:18.612Z,75.21
2018-09-28T23:19:47.573Z,75.12
2018-09-28T23:22:16.400Z,75.13
2018-09-28T23:24:45.076Z,75.63
2018-09-28T23:27:13.835Z,75.31
2018-09-28T23:29:42.624Z,75.43
2018-09-28T23:32:11.276Z,75.32
2018-09-28T23:34:39.988Z,75.46
2018-09-28T23:37:08.713Z,75.71
2018-09-28T23:39:37.473Z,75.50
2018-09-28T23:42:06.220Z,75.54
2018-09-28T23:44:35.009Z,75.33
2018-09-28T23:47:03.706Z,75.29
2018-09-28T23:49:32.411Z,75.36
2018-09-28T23:52:01.076Z,75.57
2018-09-28T23:54:29.720Z,75.63
2018-09-28T23:56:58.402Z,75.98
2018-09-28T23:59:27.089Z,76.03
